TimeEST,TemperatureF,Dew PointF,Humidity,Sea Level PressureIn,VisibilityMPH,Wind Direction,Wind SpeedMPH,Gust SpeedMPH,PrecipitationIn,Events,Conditions,WindDirDegrees,DateUTC
12:00 AM,34.0,19.9,56,30.25,-9999.0,NNW,4.6,-,N/A,,Clear,330,2012-12-06 05:00:00
1:00 AM,33.1,18.0,54,30.26,-9999.0,NW,5.8,-,N/A,,Clear,320,2012-12-06 06:00:00
2:00 AM,32.0,18.0,56,30.27,-9999.0,NW,5.8,-,N/A,,Clear,320,2012-12-06 07:00:00
3:00 AM,28.9,18.0,64,30.27,-9999.0,WNW,3.5,-,N/A,,Clear,300,2012-12-06 08:00:00
4:00 AM,27.0,19.0,72,30.28,-9999.0,NW,3.5,-,N/A,,Clear,310,2012-12-06 09:00:00
5:00 AM,26.1,19.0,75,30.30,-9999.0,Calm,Calm,-,N/A,,Clear,0,2012-12-06 10:00:00
6:00 AM,25.0,19.0,78,30.32,-9999.0,Calm,Calm,-,N/A,,Clear,0,2012-12-06 11:00:00
7:00 AM,24.1,18.0,77,30.34,-9999.0,West,4.6,-,N/A,,Clear,270,2012-12-06 12:00:00
8:00 AM,26.1,21.0,81,30.35,-9999.0,Calm,Calm,-,N/A,,Clear,0,2012-12-06 13:00:00
9:00 AM,33.1,19.0,56,30.36,-9999.0,Calm,Calm,-,N/A,,Clear,0,2012-12-06 14:00:00
10:00 AM,35.1,17.1,48,30.37,-9999.0,NNE,4.6,-,N/A,,Clear,30,2012-12-06 15:00:00
11:00 AM,37.9,17.1,43,30.36,-9999.0,Variable,3.5,-,N/A,,Clear,0,2012-12-06 16:00:00
12:00 PM,39.9,17.1,40,30.31,-9999.0,NNE,8.1,-,N/A,,Clear,30,2012-12-06 17:00:00
1:00 PM,41.0,16.0,36,30.30,-9999.0,Calm,Calm,-,N/A,,Clear,0,2012-12-06 18:00:00
2:00 PM,43.0,17.1,35,30.28,-9999.0,Calm,Calm,-,N/A,,Clear,0,2012-12-06 19:00:00
3:00 PM,43.0,17.1,35,30.28,-9999.0,Calm,Calm,-,N/A,,Clear,0,2012-12-06 20:00:00
5:00 PM,34.0,21.0,59,30.30,-9999.0,Calm,Calm,-,N/A,,Clear,0,2012-12-06 22:00:00
6:00 PM,32.0,21.9,66,30.30,-9999.0,Calm,Calm,-,N/A,,Clear,0,2012-12-06 23:00:00
7:00 PM,30.9,23.0,72,30.30,-9999.0,Calm,Calm,-,N/A,,Clear,0,2012-12-07 00:00:00
8:00 PM,27.0,21.9,81,30.31,-9999.0,Calm,Calm,-,N/A,,Clear,0,2012-12-07 01:00:00
9:00 PM,26.1,23.0,88,30.31,-9999.0,Calm,Calm,-,N/A,,Clear,0,2012-12-07 02:00:00
10:00 PM,23.0,19.9,88,30.30,-9999.0,Calm,Calm,-,N/A,,Clear,0,2012-12-07 03:00:00
11:00 PM,21.9,19.9,92,30.30,-9999.0,Calm,Calm,-,N/A,,Clear,0,2012-12-07 04:00:00